Time;durP1;ratioP1;P1;durP2;ratioP2;P2;SDS_P1;SDS_P2;PMS_P1;PMS_P2;Temp;Humidity;BMP_temperature;BMP_pressure;BME280_temperature;BME280_humidity;BME280_pressure;Samples;Min_cycle;Max_cycle;Signal;HPM_P1;HPM_P2
2022/09/23 00:01:01;;;;;;;6.43;2.38;;;14.30;99.90;;;;;;5064577;28;20016;-90
2022/09/23 00:03:31;;;;;;;2.55;1.70;;;14.30;99.90;;;;;;5069694;28;20020;-89
2022/09/23 00:06:06;;;;;;;3.78;1.65;;;14.30;99.90;;;;;;5080340;28;20020;-90
2022/09/23 00:08:32;;;;;;;1.90;1.45;;;14.30;99.90;;;;;;5066222;28;20576;-90
2022/09/23 00:11:04;;;;;;;2.90;1.77;;;14.30;99.90;;;;;;5072077;28;20059;-89
2022/09/23 00:13:30;;;;;;;1.77;1.52;;;14.30;99.90;;;;;;5070295;28;20020;-89
2022/09/23 00:15:55;;;;;;;3.35;1.80;;;14.30;99.90;;;;;;5085696;28;20017;-90
2022/09/23 00:18:21;;;;;;;1.88;1.63;;;14.30;99.90;;;;;;5084857;28;20035;-89
2022/09/23 00:20:47;;;;;;;2.85;2.10;;;14.30;99.90;;;;;;5066188;28;20020;-89
2022/09/23 00:23:12;;;;;;;3.00;1.90;;;14.30;99.90;;;;;;5055776;28;20116;-88
2022/09/23 00:25:38;;;;;;;4.47;2.10;;;14.40;99.90;;;;;;5061424;28;20031;-90
2022/09/23 00:28:04;;;;;;;2.35;1.92;;;14.30;99.90;;;;;;5068068;28;20031;-89
2022/09/23 00:30:30;;;;;;;2.60;1.95;;;14.30;99.90;;;;;;5071926;28;20706;-89
2022/09/23 00:32:55;;;;;;;2.55;2.00;;;14.30;99.90;;;;;;5068476;28;20021;-90
2022/09/23 00:35:21;;;;;;;3.25;2.10;;;14.30;99.90;;;;;;5072717;28;20501;-89
2022/09/23 00:37:47;;;;;;;3.90;2.17;;;14.30;99.90;;;;;;5076693;28;20025;-90
2022/09/23 00:40:14;;;;;;;4.22;2.10;;;14.30;99.90;;;;;;5066656;28;20032;-89
2022/09/23 00:42:47;;;;;;;2.58;2.08;;;14.30;99.90;;;;;;5061897;28;20020;-90
2022/09/23 00:45:13;;;;;;;4.45;2.75;;;14.30;99.90;;;;;;5060363;28;20035;-88
2022/09/23 00:47:42;;;;;;;3.75;2.03;;;14.30;99.90;;;;;;5063055;28;20401;-89
2022/09/23 00:50:35;;;;;;;2.45;2.03;;;14.30;99.90;;;;;;5080613;28;20024;-90
2022/09/23 00:53:09;;;;;;;2.65;2.30;;;14.30;99.90;;;;;;5068522;28;20033;-89
2022/09/23 00:55:42;;;;;;;3.17;2.40;;;14.30;99.90;;;;;;5066386;28;20020;-90
2022/09/23 00:58:10;;;;;;;5.25;2.25;;;14.30;99.90;;;;;;5053620;28;20036;-90
2022/09/23 01:00:37;;;;;;;2.67;1.95;;;14.30;99.90;;;;;;5066534;28;20520;-91
2022/09/23 01:03:05;;;;;;;2.10;1.90;;;14.30;99.90;;;;;;5067136;28;20028;-89
2022/09/23 01:05:35;;;;;;;3.90;1.83;;;14.30;99.90;;;;;;5060047;28;20111;-90
2022/09/23 01:08:03;;;;;;;3.50;1.92;;;14.30;99.90;;;;;;5067624;28;20024;-89
2022/09/23 01:10:39;;;;;;;2.80;2.28;;;14.30;99.90;;;;;;5074475;28;20089;-90
2022/09/23 01:13:25;;;;;;;3.17;2.40;;;14.30;99.90;;;;;;5058926;28;20032;-90
2022/09/23 01:16:00;;;;;;;3.08;2.03;;;14.30;99.90;;;;;;5068051;28;20015;-90
2022/09/23 01:18:33;;;;;;;3.67;1.90;;;14.30;99.90;;;;;;5066777;28;20027;-90
2022/09/23 01:21:15;;;;;;;3.05;2.28;;;14.40;99.90;;;;;;5072748;28;20062;-90
2022/09/23 01:23:55;;;;;;;2.92;2.00;;;14.30;99.90;;;;;;5077789;28;20439;-90
2022/09/23 01:26:39;;;;;;;2.60;2.13;;;14.30;99.90;;;;;;5061429;28;20118;-89
2022/09/23 01:29:23;;;;;;;;;;;14.30;99.90;;;;;;5085985;28;20038;-90
2022/09/23 01:32:21;;;;;;;3.58;2.50;;;14.30;99.90;;;;;;5073616;28;19915;-90
2022/09/23 01:34:54;;;;;;;4.78;2.40;;;14.30;99.90;;;;;;5043872;28;20036;-89
2022/09/23 01:37:29;;;;;;;5.13;2.72;;;14.30;99.90;;;;;;5073136;28;20028;-90
2022/09/23 01:40:24;;;;;;;3.63;2.55;;;14.30;99.90;;;;;;5068156;28;20154;-89
2022/09/23 01:43:04;;;;;;;5.03;2.35;;;14.30;99.90;;;;;;5072137;28;20054;-91
2022/09/23 01:45:53;;;;;;;2.53;2.17;;;14.30;99.90;;;;;;5089612;28;20077;-90
2022/09/23 01:48:50;;;;;;;2.60;2.03;;;14.30;99.90;;;;;;5058305;28;20105;-91
2022/09/23 01:51:23;;;;;;;3.22;2.20;;;14.30;99.90;;;;;;5065497;28;20024;-90
2022/09/23 01:54:17;;;;;;;3.95;2.60;;;14.20;99.90;;;;;;5074955;28;20028;-89
2022/09/23 01:56:51;;;;;;;4.07;2.17;;;14.20;99.90;;;;;;5073060;28;20016;-88
2022/09/23 01:59:25;;;;;;;2.45;2.00;;;14.20;99.90;;;;;;5072206;28;20027;-90
2022/09/23 02:01:51;;;;;;;2.15;1.70;;;14.30;99.90;;;;;;5071820;28;20070;-90
2022/09/23 02:04:43;;;;;;;3.40;2.05;;;14.20;99.90;;;;;;5057682;28;20025;-89
2022/09/23 02:07:33;;;;;;;4.03;1.95;;;14.20;99.90;;;;;;5069969;28;20039;-90
2022/09/23 02:10:09;;;;;;;2.33;1.60;;;14.20;99.90;;;;;;5065916;28;20036;-89
2022/09/23 02:15:33;;;;;;;2.85;1.90;;;14.20;99.90;;;;;;5082011;28;20031;-90
2022/09/23 02:18:13;;;;;;;6.30;2.28;;;14.20;99.90;;;;;;5074312;28;20102;-90
2022/09/23 02:20:39;;;;;;;3.75;2.10;;;14.20;99.90;;;;;;5067613;28;20069;-89
2022/09/23 02:23:13;;;;;;;3.70;2.10;;;14.20;99.90;;;;;;5073693;28;20153;-90
2022/09/23 02:25:56;;;;;;;5.22;2.42;;;14.20;99.90;;;;;;5066508;28;20113;-89
2022/09/23 02:28:47;;;;;;;3.23;2.07;;;14.20;99.90;;;;;;5071774;28;20062;-90
2022/09/23 02:31:36;;;;;;;2.72;1.85;;;14.10;99.90;;;;;;5065550;28;20028;-89
2022/09/23 02:34:16;;;;;;;3.65;2.20;;;14.10;99.90;;;;;;5076269;28;20032;-90
2022/09/23 02:37:03;;;;;;;3.95;1.80;;;14.20;99.90;;;;;;5073176;28;20021;-89
2022/09/23 02:39:41;;;;;;;4.00;2.10;;;14.10;99.90;;;;;;5064340;28;20025;-90
2022/09/23 02:42:11;;;;;;;2.50;2.00;;;14.10;99.90;;;;;;5068355;28;20024;-90
2022/09/23 02:44:37;;;;;;;2.15;1.95;;;14.10;99.90;;;;;;5066911;28;20062;-90
2022/09/23 02:47:03;;;;;;;2.60;2.08;;;14.20;99.90;;;;;;5065742;28;20127;-90
2022/09/23 02:49:30;;;;;;;5.40;1.92;;;14.10;99.90;;;;;;5073401;28;20115;-89
2022/09/23 02:51:59;;;;;;;5.40;2.40;;;14.10;99.90;;;;;;5066264;28;20033;-90
2022/09/23 02:54:27;;;;;;;2.97;1.85;;;14.10;99.90;;;;;;5059676;28;20024;-90
2022/09/23 02:56:53;;;;;;;3.58;2.10;;;14.10;99.90;;;;;;5062588;28;20513;-90
2022/09/23 02:59:23;;;;;;;2.85;2.00;;;14.10;99.90;;;;;;5064794;28;20034;-89
2022/09/23 03:02:12;;;;;;;3.13;2.30;;;14.20;99.90;;;;;;5072433;28;20459;-90
2022/09/23 03:05:13;;;;;;;3.28;2.15;;;14.10;99.90;;;;;;5059368;28;20028;-89
2022/09/23 03:08:05;;;;;;;4.32;2.63;;;14.10;99.90;;;;;;4989925;28;20027;-89
2022/09/23 03:10:42;;;;;;;3.75;2.42;;;14.10;99.90;;;;;;5060312;28;20132;-91
2022/09/23 03:13:30;;;;;;;3.22;2.03;;;14.10;99.90;;;;;;5056191;28;20107;-87
2022/09/23 03:16:11;;;;;;;2.72;1.80;;;14.10;99.90;;;;;;5071483;28;20020;-91
2022/09/23 03:19:05;;;;;;;5.53;2.20;;;14.10;99.90;;;;;;5065439;28;20026;-90
2022/09/23 03:21:37;;;;;;;2.38;1.95;;;14.00;99.90;;;;;;5052242;28;20028;-90
2022/09/23 03:24:06;;;;;;;4.53;2.70;;;14.00;99.90;;;;;;5076913;28;20020;-90
2022/09/23 03:26:35;;;;;;;3.20;2.17;;;14.00;99.90;;;;;;5082986;28;20077;-90
2022/09/23 03:29:03;;;;;;;3.55;2.28;;;14.00;99.90;;;;;;5078784;28;20542;-89
2022/09/23 03:31:31;;;;;;;5.95;2.10;;;14.00;99.90;;;;;;5073049;28;20111;-90
2022/09/23 03:34:02;;;;;;;3.00;2.20;;;14.00;99.90;;;;;;5063468;28;20120;-90
2022/09/23 03:37:00;;;;;;;4.10;2.38;;;14.00;99.90;;;;;;5059151;28;20481;-91
2022/09/23 03:39:50;;;;;;;4.75;2.08;;;13.90;99.90;;;;;;5073467;28;20020;-90
2022/09/23 03:42:26;;;;;;;3.22;1.95;;;13.90;99.90;;;;;;5091354;28;20478;-89
2022/09/23 03:44:55;;;;;;;2.85;1.95;;;14.00;99.90;;;;;;5064812;28;20043;-90
2022/09/23 03:47:21;;;;;;;5.03;2.13;;;14.00;99.90;;;;;;5062983;28;20051;-90
2022/09/23 03:49:48;;;;;;;2.85;2.15;;;13.90;99.90;;;;;;5063026;28;20099;-89
2022/09/23 03:52:16;;;;;;;5.07;2.47;;;14.00;99.90;;;;;;5063877;28;20017;-89
2022/09/23 03:54:42;;;;;;;3.15;2.20;;;13.90;99.90;;;;;;5090243;28;20032;-90
2022/09/23 03:57:09;;;;;;;5.13;2.15;;;14.00;99.90;;;;;;5090964;28;20023;-90
2022/09/23 03:59:35;;;;;;;3.50;2.10;;;13.90;99.90;;;;;;5088406;28;20020;-91
2022/09/23 04:02:01;;;;;;;3.42;1.88;;;14.00;99.90;;;;;;5065428;28;20020;-89
2022/09/23 04:04:28;;;;;;;3.45;2.33;;;14.00;99.90;;;;;;5062149;28;20024;-89
2022/09/23 04:06:54;;;;;;;5.47;1.88;;;14.00;99.90;;;;;;5042723;28;20072;-89
2022/09/23 04:09:21;;;;;;;4.90;2.10;;;13.90;99.90;;;;;;5056232;28;20024;-89
2022/09/23 04:11:48;;;;;;;4.60;2.00;;;13.90;99.90;;;;;;5092773;22;20073;-84
2022/09/23 04:14:14;;;;;;;3.03;2.00;;;13.90;99.90;;;;;;5017804;28;20036;-84
2022/09/23 04:16:40;;;;;;;3.15;2.08;;;13.90;99.90;;;;;;5028273;28;20015;-84
2022/09/23 04:19:05;;;;;;;4.82;2.50;;;13.90;99.90;;;;;;5028473;28;20033;-84
2022/09/23 04:21:31;;;;;;;8.85;2.08;;;13.90;99.90;;;;;;5028280;28;20397;-84
2022/09/23 04:23:57;;;;;;;3.08;2.03;;;13.90;99.90;;;;;;5018575;28;20032;-84
2022/09/23 04:26:23;;;;;;;2.67;1.95;;;13.90;99.90;;;;;;5023907;28;20034;-84
2022/09/23 04:28:49;;;;;;;5.32;2.25;;;13.90;99.90;;;;;;5045732;28;20059;-84
2022/09/23 04:31:14;;;;;;;3.53;2.15;;;13.90;99.90;;;;;;5035642;28;20036;-84
2022/09/23 04:33:40;;;;;;;3.45;1.95;;;14.00;99.90;;;;;;5050478;28;20512;-84
2022/09/23 04:36:06;;;;;;;2.67;2.00;;;14.00;99.90;;;;;;5029885;28;20029;-84
2022/09/23 04:38:31;;;;;;;3.08;2.05;;;13.90;99.90;;;;;;5027225;28;20025;-84
2022/09/23 04:40:57;;;;;;;3.03;1.90;;;13.90;99.90;;;;;;5047441;28;20025;-84
2022/09/23 04:43:23;;;;;;;2.95;1.70;;;13.90;99.90;;;;;;5041506;28;20485;-84
2022/09/23 04:46:06;;;;;;;4.13;2.53;;;13.80;99.90;;;;;;5036080;28;20499;-84
2022/09/23 04:48:32;;;;;;;3.23;2.17;;;13.80;99.90;;;;;;5038290;28;20037;-82
2022/09/23 04:51:03;;;;;;;2.83;2.03;;;13.80;99.90;;;;;;5056298;28;20263;-85
2022/09/23 04:53:28;;;;;;;3.22;2.50;;;13.80;99.90;;;;;;5031149;28;20051;-85
2022/09/23 04:55:59;;;;;;;4.65;2.25;;;13.80;99.90;;;;;;5032119;28;20485;-85
2022/09/23 04:58:25;;;;;;;3.15;2.13;;;13.80;99.90;;;;;;5029744;28;20115;-84
2022/09/23 05:00:51;;;;;;;3.92;2.10;;;13.80;99.90;;;;;;5042281;28;20111;-85
2022/09/23 05:03:16;;;;;;;4.43;2.13;;;13.80;99.90;;;;;;5040772;28;20131;-85
2022/09/23 05:05:42;;;;;;;2.90;2.00;;;13.80;99.90;;;;;;5013319;28;20025;-85
2022/09/23 05:08:08;;;;;;;4.15;2.40;;;13.80;99.90;;;;;;5016631;28;20025;-84
2022/09/23 05:10:33;;;;;;;1.88;1.70;;;13.80;99.90;;;;;;5023018;28;20393;-84
2022/09/23 05:12:59;;;;;;;4.75;2.47;;;13.70;99.90;;;;;;5017589;28;20360;-84
2022/09/23 05:15:25;;;;;;;3.47;2.28;;;13.70;99.90;;;;;;5021747;28;20491;-84
2022/09/23 05:17:50;;;;;;;3.33;2.15;;;13.70;99.90;;;;;;5030238;28;20028;-85
2022/09/23 05:20:17;;;;;;;5.28;2.15;;;13.70;99.90;;;;;;5030059;28;20025;-85
2022/09/23 05:22:43;;;;;;;3.17;2.20;;;13.70;99.90;;;;;;5037812;28;20083;-85
2022/09/23 05:25:09;;;;;;;2.78;1.70;;;13.80;99.90;;;;;;5013369;28;20033;-84
2022/09/23 05:27:35;;;;;;;2.85;2.00;;;13.70;99.90;;;;;;5043715;28;20107;-84
2022/09/23 05:30:01;;;;;;;4.22;2.33;;;13.80;99.90;;;;;;5051460;28;20025;-84
2022/09/23 05:32:26;;;;;;;2.65;2.10;;;13.80;99.90;;;;;;5046233;28;20037;-84
2022/09/23 05:34:54;;;;;;;5.25;2.65;;;13.80;99.90;;;;;;5018524;28;20013;-84
2022/09/23 05:37:19;;;;;;;3.58;2.42;;;13.80;99.90;;;;;;5025766;28;20025;-85
2022/09/23 05:39:45;;;;;;;5.20;2.17;;;13.80;99.90;;;;;;5020008;28;20654;-84
2022/09/23 05:42:11;;;;;;;4.13;1.90;;;13.80;99.90;;;;;;5031270;28;20026;-84
2022/09/23 05:44:38;;;;;;;3.60;2.70;;;13.70;99.90;;;;;;5022174;28;20033;-85
2022/09/23 05:47:03;;;;;;;2.72;2.00;;;13.70;99.90;;;;;;5023896;28;20424;-85
2022/09/23 05:49:29;;;;;;;2.70;2.13;;;13.80;99.90;;;;;;5018521;28;20314;-84
2022/09/23 05:51:55;;;;;;;4.70;2.13;;;13.70;99.90;;;;;;5020201;28;20025;-84
2022/09/23 05:54:21;;;;;;;4.05;2.50;;;13.80;99.90;;;;;;5018646;28;20040;-84
2022/09/23 05:56:46;;;;;;;3.55;2.58;;;13.70;99.90;;;;;;5036526;28;20078;-85
2022/09/23 05:59:12;;;;;;;2.75;1.95;;;13.70;99.90;;;;;;5028673;28;20292;-85
2022/09/23 06:01:38;;;;;;;3.38;2.13;;;13.70;99.90;;;;;;5039483;28;20021;-85
2022/09/23 06:04:06;;;;;;;3.15;2.30;;;13.70;99.90;;;;;;5017255;28;20083;-84
2022/09/23 06:06:40;;;;;;;2.67;1.95;;;13.70;99.90;;;;;;5025440;28;20116;-84
2022/09/23 06:09:10;;;;;;;3.47;2.35;;;13.70;99.90;;;;;;5048960;28;20512;-85
2022/09/23 06:11:36;;;;;;;6.53;2.53;;;13.60;99.90;;;;;;5031718;28;20056;-85
2022/09/23 06:14:02;;;;;;;5.35;1.65;;;13.60;99.90;;;;;;5018049;28;20044;-85
2022/09/23 06:16:31;;;;;;;3.65;2.33;;;13.60;99.90;;;;;;5040119;28;20796;-85
2022/09/23 06:18:57;;;;;;;5.97;2.97;;;13.60;99.90;;;;;;5050022;28;20025;-85
2022/09/23 06:21:23;;;;;;;3.05;2.08;;;13.60;99.90;;;;;;5031962;28;20040;-84
2022/09/23 06:23:48;;;;;;;3.75;2.05;;;13.60;99.90;;;;;;5043278;28;20033;-85
2022/09/23 06:26:15;;;;;;;3.38;2.10;;;13.60;99.90;;;;;;5024286;28;20045;-85
2022/09/23 06:28:42;;;;;;;3.28;2.22;;;13.60;99.90;;;;;;5028578;28;20400;-85
2022/09/23 06:31:15;;;;;;;2.47;1.90;;;13.60;99.90;;;;;;5030673;28;20578;-85
2022/09/23 06:33:43;;;;;;;3.60;2.10;;;13.60;99.90;;;;;;5026276;28;20049;-85
2022/09/23 06:36:10;;;;;;;3.17;2.30;;;13.60;99.90;;;;;;5024658;28;20032;-85
2022/09/23 06:38:42;;;;;;;4.00;2.50;;;13.60;99.90;;;;;;5026197;28;20071;-85
2022/09/23 06:41:08;;;;;;;2.95;2.10;;;13.60;99.90;;;;;;5029535;28;20017;-85
2022/09/23 06:43:34;;;;;;;3.08;2.33;;;13.70;99.90;;;;;;5045607;28;20393;-85
2022/09/23 06:46:02;;;;;;;3.58;2.58;;;13.70;99.90;;;;;;5029591;28;20021;-85
2022/09/23 06:48:29;;;;;;;3.72;2.30;;;13.70;99.90;;;;;;5019908;28;20493;-85
2022/09/23 06:50:58;;;;;;;3.60;2.40;;;13.60;99.90;;;;;;5029042;28;20064;-85
2022/09/23 06:53:24;;;;;;;2.67;2.03;;;13.70;99.90;;;;;;5046656;28;20381;-85
2022/09/23 06:56:22;;;;;;;4.95;2.42;;;13.60;99.90;;;;;;5030525;28;20017;-85
2022/09/23 06:58:51;;;;;;;3.25;2.17;;;13.60;99.90;;;;;;4991529;28;20044;-85
2022/09/23 07:01:17;;;;;;;3.83;2.55;;;13.70;99.90;;;;;;5028704;28;20220;-85
2022/09/23 07:03:45;;;;;;;3.60;2.65;;;13.60;99.90;;;;;;5024672;28;20365;-85
2022/09/23 07:06:12;;;;;;;3.70;2.30;;;13.70;99.90;;;;;;5018615;28;20369;-85
2022/09/23 07:08:41;;;;;;;3.53;2.35;;;13.70;99.90;;;;;;5020603;28;20026;-85
2022/09/23 07:11:09;;;;;;;2.55;1.75;;;13.60;99.90;;;;;;5021310;28;20039;-85
2022/09/23 07:13:36;;;;;;;3.70;2.30;;;13.60;99.90;;;;;;5022784;28;20362;-85
2022/09/23 07:16:02;;;;;;;3.97;2.08;;;13.60;99.90;;;;;;5048628;28;20464;-85
2022/09/23 07:18:33;;;;;;;3.20;2.15;;;13.60;99.90;;;;;;5020842;28;20080;-85
2022/09/23 07:21:13;;;;;;;3.85;2.60;;;13.60;99.90;;;;;;5012696;28;20504;-85
2022/09/23 07:23:50;;;;;;;3.72;2.50;;;13.70;99.90;;;;;;5030532;28;20040;-85
2022/09/23 07:26:17;;;;;;;2.38;1.90;;;13.70;99.90;;;;;;5029075;28;20029;-85
2022/09/23 07:28:44;;;;;;;2.50;2.10;;;13.60;99.90;;;;;;5029990;28;20029;-85
2022/09/23 07:31:12;;;;;;;6.65;2.35;;;13.70;99.90;;;;;;5029759;28;20094;-85
2022/09/23 07:33:42;;;;;;;2.90;2.33;;;13.70;99.90;;;;;;5023499;28;20036;-85
2022/09/23 07:36:11;;;;;;;4.68;2.40;;;13.70;99.90;;;;;;5026662;28;20022;-85
2022/09/23 07:38:37;;;;;;;4.60;2.70;;;13.80;99.90;;;;;;5024852;28;20112;-85
2022/09/23 07:41:09;;;;;;;3.88;2.47;;;13.80;99.90;;;;;;5029256;28;20051;-85
2022/09/23 07:43:36;;;;;;;4.38;2.47;;;13.80;99.90;;;;;;5029269;28;20099;-85
2022/09/23 07:46:07;;;;;;;3.13;2.33;;;13.80;99.90;;;;;;5023916;28;20018;-85
2022/09/23 07:48:33;;;;;;;4.13;2.60;;;13.80;99.90;;;;;;5015511;28;20029;-85
2022/09/23 07:50:59;;;;;;;3.60;2.70;;;13.80;99.90;;;;;;5049621;28;20032;-85
2022/09/23 07:53:26;;;;;;;5.32;2.58;;;13.70;99.90;;;;;;5027391;28;20033;-85
2022/09/23 07:55:53;;;;;;;4.28;3.08;;;13.80;99.90;;;;;;5029755;28;20036;-84
2022/09/23 07:58:20;;;;;;;4.80;2.47;;;13.70;99.90;;;;;;5039736;28;20375;-85
2022/09/23 08:00:45;;;;;;;3.95;2.33;;;13.70;99.90;;;;;;5027454;28;20116;-85
2022/09/23 08:03:11;;;;;;;3.00;2.35;;;13.70;99.90;;;;;;5031551;28;20116;-85
2022/09/23 08:05:37;;;;;;;3.03;2.53;;;13.70;99.90;;;;;;5029443;28;20120;-85
2022/09/23 08:08:06;;;;;;;4.30;2.55;;;13.70;99.90;;;;;;5024264;28;20504;-85
2022/09/23 08:10:32;;;;;;;3.63;2.63;;;13.70;99.90;;;;;;5033958;28;20057;-84
2022/09/23 08:12:58;;;;;;;3.35;2.70;;;13.70;99.90;;;;;;5041572;28;20063;-85
2022/09/23 08:15:25;;;;;;;6.80;3.13;;;13.70;99.90;;;;;;5034518;28;20400;-85
2022/09/23 08:17:51;;;;;;;4.28;2.65;;;13.70;99.90;;;;;;5032372;28;20507;-85
2022/09/23 08:20:43;;;;;;;4.05;2.83;;;13.70;99.90;;;;;;5032755;28;20025;-85
2022/09/23 08:23:03;;;;;;;4.25;2.70;;;13.70;99.90;;;;;;5049301;28;20029;-85
2022/09/23 08:25:30;;;;;;;4.30;2.72;;;13.70;99.90;;;;;;5030121;28;20021;-85
2022/09/23 08:27:55;;;;;;;3.58;3.03;;;13.70;99.90;;;;;;5044859;28;20078;-85
2022/09/23 08:30:21;;;;;;;4.32;2.92;;;13.70;99.90;;;;;;5032257;28;20029;-85
2022/09/23 08:32:49;;;;;;;4.97;3.15;;;13.70;99.90;;;;;;5028673;28;20140;-85
2022/09/23 08:35:15;;;;;;;3.92;3.00;;;13.70;99.90;;;;;;5046173;28;20082;-84
2022/09/23 08:37:41;;;;;;;5.20;3.25;;;13.70;99.90;;;;;;5041544;28;20377;-85
2022/09/23 08:40:07;;;;;;;6.93;3.22;;;13.70;99.90;;;;;;5046088;28;20018;-85
2022/09/23 08:42:35;;;;;;;3.70;2.80;;;13.70;99.90;;;;;;5022710;28;20465;-85
2022/09/23 08:45:05;;;;;;;4.43;3.33;;;13.70;99.90;;;;;;5040807;28;21668;-84
2022/09/23 08:47:40;;;;;;;4.18;2.60;;;13.70;99.90;;;;;;5035723;28;20029;-84
2022/09/23 08:50:20;;;;;;;6.00;2.85;;;13.70;99.90;;;;;;5043194;28;20021;-83
2022/09/23 08:52:55;;;;;;;5.32;2.75;;;13.80;99.90;;;;;;5051749;28;20038;-83
2022/09/23 08:55:40;;;;;;;3.72;2.65;;;13.70;99.90;;;;;;5027848;28;20116;-84
2022/09/23 08:58:25;;;;;;;3.28;2.85;;;13.70;99.90;;;;;;5024692;28;20023;-83
2022/09/23 09:01:20;;;;;;;3.17;2.83;;;13.70;99.90;;;;;;5032027;28;20036;-84
2022/09/23 09:04:00;;;;;;;4.03;3.13;;;13.80;99.90;;;;;;5046212;28;20033;-84
2022/09/23 09:06:37;;;;;;;4.63;2.85;;;13.80;99.90;;;;;;5055992;28;20053;-83
2022/09/23 09:09:08;;;;;;;4.05;2.67;;;13.70;99.90;;;;;;5025636;28;20116;-83
2022/09/23 09:11:42;;;;;;;6.10;3.00;;;13.80;99.90;;;;;;5028417;28;20029;-84
2022/09/23 09:14:21;;;;;;;;;;;13.70;99.90;;;;;;5051473;28;20025;-83
2022/09/23 09:16:46;;;;;;;7.15;2.75;;;13.80;99.90;;;;;;5017419;28;19928;-83
2022/09/23 09:19:20;;;;;;;4.03;2.67;;;13.80;99.90;;;;;;5032563;28;20033;-84
2022/09/23 09:21:52;;;;;;;3.05;2.45;;;13.70;99.90;;;;;;5037317;28;20036;-83
2022/09/23 09:24:28;;;;;;;2.92;2.42;;;13.70;99.90;;;;;;5032455;28;20427;-84
2022/09/23 09:26:54;;;;;;;5.75;2.60;;;13.70;99.90;;;;;;5034092;28;20017;-82
2022/09/23 09:29:28;;;;;;;4.22;2.78;;;13.70;99.90;;;;;;5036730;28;20028;-84
2022/09/23 09:31:55;;;;;;;5.63;2.22;;;13.80;99.90;;;;;;5049861;28;20027;-84
2022/09/23 09:34:53;;;;;;;3.40;2.63;;;13.70;99.90;;;;;;5020945;28;20046;-85
2022/09/23 09:37:25;;;;;;;5.13;2.55;;;13.80;99.90;;;;;;5045466;28;20072;-83
2022/09/23 09:39:50;;;;;;;3.38;2.40;;;13.80;99.90;;;;;;5023873;28;20025;-83
2022/09/23 09:42:25;;;;;;;4.25;2.75;;;13.80;99.90;;;;;;5051938;28;20394;-85
2022/09/23 09:45:09;;;;;;;4.07;3.35;;;13.80;99.90;;;;;;5027873;28;20388;-84
2022/09/23 09:47:59;;;;;;;4.50;2.88;;;13.80;99.90;;;;;;5036995;28;20031;-84
2022/09/23 09:50:47;;;;;;;3.63;2.60;;;13.80;99.90;;;;;;5050597;28;20029;-84
2022/09/23 09:53:24;;;;;;;3.88;3.05;;;13.80;99.90;;;;;;5044965;28;20029;-84
2022/09/23 09:56:11;;;;;;;4.20;2.60;;;13.80;99.90;;;;;;5022142;28;20021;-83
2022/09/23 09:59:07;;;;;;;3.15;2.55;;;13.80;99.90;;;;;;5035044;28;20803;-83
2022/09/23 10:01:33;;;;;;;3.83;2.85;;;13.80;99.90;;;;;;5051444;28;20029;-84
2022/09/23 10:04:07;;;;;;;5.88;2.80;;;13.80;99.90;;;;;;5044935;28;20029;-83
2022/09/23 10:06:34;;;;;;;3.72;3.10;;;13.80;99.90;;;;;;5020977;28;20026;-84
2022/09/23 10:09:03;;;;;;;4.47;2.90;;;13.80;99.90;;;;;;5039605;28;20160;-83
2022/09/23 10:11:30;;;;;;;3.72;2.97;;;13.80;99.90;;;;;;5019554;28;20393;-83
2022/09/23 10:14:01;;;;;;;3.88;2.65;;;13.80;99.90;;;;;;5051883;28;20029;-84
2022/09/23 10:16:31;;;;;;;3.97;2.90;;;13.80;99.90;;;;;;5033454;28;20033;-83
2022/09/23 10:19:02;;;;;;;3.55;2.63;;;13.80;99.90;;;;;;5032312;28;20040;-84
2022/09/23 10:21:36;;;;;;;4.25;3.30;;;13.80;99.90;;;;;;5048819;28;20112;-83
2022/09/23 10:24:06;;;;;;;;;;;13.80;99.90;;;;;;5035340;28;20021;-83
2022/09/23 10:26:33;;;;;;;3.83;3.10;;;13.80;99.90;;;;;;5033989;28;19967;-83
2022/09/23 10:29:19;;;;;;;4.13;3.17;;;13.90;99.90;;;;;;5024035;28;20116;-83
2022/09/23 10:31:44;;;;;;;3.58;2.60;;;13.90;99.90;;;;;;5026321;28;20028;-83
2022/09/23 10:34:26;;;;;;;5.25;3.20;;;13.80;99.90;;;;;;5018310;28;20037;-83
2022/09/23 10:37:17;;;;;;;2.97;2.63;;;13.90;99.90;;;;;;5041668;28;20041;-83
2022/09/23 10:48:49;;;;;;;5.00;2.42;;;13.90;99.90;;;;;;5049899;28;20091;-84
2022/09/23 10:51:25;;;;;;;6.72;2.92;;;13.90;99.90;;;;;;5043033;28;20043;-83
2022/09/23 10:54:17;;;;;;;3.38;2.72;;;13.90;99.90;;;;;;5030753;28;20033;-84
2022/09/23 10:57:36;;;;;;;5.53;2.70;;;13.90;99.90;;;;;;5047620;28;20023;-84
2022/09/23 11:00:23;;;;;;;4.15;2.53;;;13.90;99.90;;;;;;5044943;28;20029;-85
2022/09/23 11:03:10;;;;;;;4.82;3.05;;;13.90;99.90;;;;;;5043831;28;20497;-84
2022/09/23 11:06:18;;;;;;;3.95;2.95;;;13.90;99.90;;;;;;5033970;28;20033;-82
2022/09/23 11:09:06;;;;;;;4.82;3.08;;;13.90;99.90;;;;;;5045895;28;20031;-83
2022/09/23 11:11:47;;;;;;;3.92;3.17;;;13.90;99.90;;;;;;5045932;28;20529;-84
2022/09/23 11:14:15;;;;;;;3.13;2.35;;;13.90;99.90;;;;;;5051399;28;20078;-85
2022/09/23 11:16:53;;;;;;;5.93;2.95;;;13.90;99.90;;;;;;5040699;28;20039;-84
2022/09/23 11:19:55;;;;;;;3.90;2.80;;;13.90;99.90;;;;;;5029862;28;20035;-84
2022/09/23 11:22:44;;;;;;;2.78;2.42;;;13.90;99.90;;;;;;5013060;28;20121;-83
2022/09/23 11:25:37;;;;;;;2.47;2.10;;;13.90;99.90;;;;;;5029527;28;20017;-84
2022/09/23 11:28:03;;;;;;;3.72;2.83;;;13.90;99.90;;;;;;5049658;28;20032;-83
2022/09/23 11:31:23;;;;;;;4.70;2.95;;;13.90;99.90;;;;;;5034753;28;20017;-84
2022/09/23 11:33:57;;;;;;;4.28;3.00;;;13.90;99.90;;;;;;4965192;28;20030;-83
2022/09/23 11:36:22;;;;;;;;;;;13.90;99.90;;;;;;5031435;28;20034;-83
2022/09/23 11:38:51;;;;;;;4.57;2.60;;;14.00;99.90;;;;;;5025014;28;19908;-83
2022/09/23 11:41:33;;;;;;;4.43;3.22;;;13.90;99.90;;;;;;5053929;28;20029;-83
2022/09/23 11:44:09;;;;;;;4.78;2.85;;;13.90;99.90;;;;;;5049345;28;20464;-83
2022/09/23 11:47:07;;;;;;;5.40;2.88;;;13.90;99.90;;;;;;5050581;28;20033;-83
2022/09/23 11:49:42;;;;;;;3.35;2.50;;;13.90;99.90;;;;;;5017731;28;20086;-84
2022/09/23 11:52:19;;;;;;;6.63;3.10;;;13.90;99.90;;;;;;5026143;28;20051;-84
2022/09/23 11:55:17;;;;;;;3.83;2.53;;;13.90;99.90;;;;;;5025229;28;20033;-83
2022/09/23 11:57:56;;;;;;;3.53;2.88;;;13.90;99.90;;;;;;5042851;28;20021;-83
2022/09/23 12:00:25;;;;;;;6.43;3.65;;;14.00;99.90;;;;;;5049939;28;20041;-83
2022/09/23 12:03:29;;;;;;;3.33;2.67;;;14.00;99.90;;;;;;5045319;28;20088;-84
2022/09/23 12:06:13;;;;;;;3.15;2.63;;;14.00;99.90;;;;;;4972667;28;20387;-84
2022/09/23 12:08:38;;;;;;;3.83;2.88;;;14.00;99.90;;;;;;4963889;28;20042;-83
2022/09/23 12:11:22;;;;;;;2.83;2.30;;;14.00;99.90;;;;;;5001219;28;20029;-84
2022/09/23 12:14:07;;;;;;;6.38;2.15;;;14.00;99.90;;;;;;5045074;28;20025;-83
2022/09/23 12:16:52;;;;;;;3.03;2.72;;;14.00;99.90;;;;;;5033327;28;20048;-84
2022/09/23 12:19:50;;;;;;;3.33;2.65;;;14.00;99.90;;;;;;5042399;28;20025;-83
2022/09/23 12:22:25;;;;;;;4.07;2.78;;;14.00;99.90;;;;;;4997055;28;20499;-84
2022/09/23 12:25:10;;;;;;;4.03;2.53;;;14.00;99.90;;;;;;5027688;28;20032;-83
2022/09/23 12:27:44;;;;;;;3.75;3.25;;;14.00;99.90;;;;;;5026222;28;20034;-85
2022/09/23 12:30:29;;;;;;;2.88;2.22;;;14.00;99.90;;;;;;5045751;28;20051;-83
2022/09/23 12:33:31;;;;;;;3.45;2.45;;;14.00;99.90;;;;;;5042301;28;20041;-83
2022/09/23 12:36:06;;;;;;;3.15;2.45;;;14.00;99.90;;;;;;4985855;28;20045;-83
2022/09/23 12:38:53;;;;;;;2.65;1.98;;;14.00;99.90;;;;;;5032663;28;20098;-83
2022/09/23 12:41:36;;;;;;;2.40;2.20;;;14.00;99.90;;;;;;5025803;28;21875;-83
2022/09/23 12:44:13;;;;;;;4.63;2.40;;;14.00;99.90;;;;;;5020486;28;20122;-83
2022/09/23 12:46:44;;;;;;;3.55;2.33;;;14.00;99.90;;;;;;5034930;28;20052;-83
2022/09/23 12:49:27;;;;;;;5.70;2.60;;;14.00;99.90;;;;;;5031989;28;20507;-83
2022/09/23 12:52:11;;;;;;;5.32;2.50;;;14.10;99.90;;;;;;5014837;28;20022;-83
2022/09/23 12:54:44;;;;;;;3.17;2.30;;;14.00;99.90;;;;;;5053795;28;20748;-83
2022/09/23 12:57:32;;;;;;;3.40;2.50;;;14.00;99.90;;;;;;5034461;28;20457;-83
2022/09/23 13:00:21;;;;;;;3.33;2.90;;;14.10;99.90;;;;;;5032656;28;20024;-84
2022/09/23 13:06:37;;;;;;;3.85;2.45;;;14.10;99.90;;;;;;5025831;28;20727;-84
2022/09/23 13:08:45;;;;;;;4.15;2.30;;;14.10;99.90;;;;;;5052374;28;20040;-84
2022/09/23 13:11:24;;;;;;;3.17;2.70;;;14.10;99.90;;;;;;5053849;28;20048;-84
2022/09/23 13:13:50;;;;;;;5.10;3.22;;;14.10;99.90;;;;;;5050045;28;20025;-83
2022/09/23 13:16:20;;;;;;;3.97;2.80;;;14.10;99.90;;;;;;5022907;28;20021;-84
2022/09/23 13:18:53;;;;;;;3.47;2.40;;;14.10;99.90;;;;;;5049382;28;21159;-84
2022/09/23 13:21:41;;;;;;;2.95;2.65;;;14.10;99.90;;;;;;5030884;28;20039;-84
2022/09/23 13:24:33;;;;;;;3.38;2.53;;;14.10;99.90;;;;;;5045167;28;20083;-85
2022/09/23 13:27:01;;;;;;;3.10;2.42;;;14.10;99.90;;;;;;5037175;28;20116;-84
2022/09/23 13:29:59;;;;;;;3.53;2.45;;;14.10;99.90;;;;;;5024535;28;20037;-85
2022/09/23 13:32:32;;;;;;;3.08;2.30;;;14.10;99.90;;;;;;5029131;28;20034;-83
2022/09/23 13:35:04;;;;;;;3.37;2.50;;;14.10;99.90;;;;;;5046171;28;20569;-84
2022/09/23 13:37:36;;;;;;;4.22;2.17;;;14.10;99.90;;;;;;5031857;28;20021;-83